Time;durP1;ratioP1;P1;durP2;ratioP2;P2;SDS_P1;SDS_P2;PMS_P1;PMS_P2;Temp;Humidity;BMP_temperature;BMP_pressure;BME280_temperature;BME280_humidity;BME280_pressure;Samples;Min_cycle;Max_cycle;Signal;HPM_P1;HPM_P2
2023/12/22 04:47:49;;;;;;;3.60;1.30;;;;;;;2.78;99.52;97712.91;6261190;22;20075;-90
2023/12/22 04:50:17;;;;;;;5.30;1.70;;;;;;;2.85;100.00;97716.09;6275638;22;20075;-90
2023/12/22 04:52:44;;;;;;;5.37;1.23;;;;;;;2.81;99.74;97718.00;6254615;22;20019;-89
2023/12/22 04:55:12;;;;;;;2.57;1.23;;;;;;;2.89;99.56;97714.25;6253768;22;20106;-91
2023/12/22 04:57:40;;;;;;;8.23;2.33;;;;;;;2.89;99.26;97703.81;6254436;22;20075;-90
2023/12/22 05:00:07;;;;;;;6.00;2.53;;;;;;;2.94;99.43;97717.53;6254544;22;20102;-90
2023/12/22 05:02:35;;;;;;;4.77;1.43;;;;;;;3.00;99.99;97741.63;6254564;22;20144;-89
2023/12/22 05:05:03;;;;;;;3.00;1.60;;;;;;;3.00;98.82;97725.97;6253984;22;20094;-91
2023/12/22 05:07:30;;;;;;;6.23;1.93;;;;;;;2.97;98.22;97740.91;6254238;22;20071;-91
2023/12/22 05:09:58;;;;;;;7.33;1.77;;;;;;;2.93;98.06;97734.06;6254327;22;20094;-91
2023/12/22 05:12:25;;;;;;;3.63;1.13;;;;;;;2.99;98.24;97726.88;6255524;22;20109;-91
2023/12/22 05:14:52;;;;;;;8.43;1.20;;;;;;;3.02;98.48;97729.38;6255747;22;20098;-92
2023/12/22 05:17:19;;;;;;;3.87;1.00;;;;;;;3.05;98.37;97739.72;6255958;22;20085;-90
2023/12/22 05:19:47;;;;;;;3.07;1.00;;;;;;;3.10;97.40;97742.13;6260904;22;20023;-89
2023/12/22 05:22:15;;;;;;;2.27;1.00;;;;;;;3.04;98.65;97739.78;6269999;22;20019;-91
2023/12/22 05:24:42;;;;;;;4.07;0.93;;;;;;;2.96;99.77;97752.25;6255318;22;20214;-90
2023/12/22 05:27:09;;;;;;;4.93;1.70;;;;;;;2.86;100.00;97743.91;6253841;22;20103;-93
2023/12/22 05:29:36;;;;;;;2.07;1.00;;;;;;;2.74;100.00;97742.56;6254319;22;20101;-91
2023/12/22 05:32:04;;;;;;;2.50;1.10;;;;;;;2.68;100.00;97737.56;6254304;22;20068;-90
2023/12/22 05:34:31;;;;;;;5.13;1.60;;;;;;;2.75;100.00;97740.81;6254309;22;20272;-91
2023/12/22 05:37:02;;;;;;;1.73;1.00;;;;;;;2.75;100.00;97736.44;6254346;22;20089;-91
2023/12/22 05:39:32;;;;;;;3.10;0.97;;;;;;;2.71;100.00;97747.91;6252058;22;20144;-90
2023/12/22 05:41:59;;;;;;;2.07;1.03;;;;;;;2.76;99.33;97750.34;6252185;22;20109;-91
2023/12/22 05:44:29;;;;;;;3.50;1.30;;;;;;;2.80;98.67;97746.72;6279694;22;20394;-90
2023/12/22 05:46:57;;;;;;;1.87;0.90;;;;;;;2.86;95.34;97763.88;6279387;22;20095;-90
2023/12/22 05:49:25;;;;;;;1.80;1.33;;;;;;;2.90;94.00;97737.66;6253958;22;20441;-91
2023/12/22 05:51:52;;;;;;;2.80;1.07;;;;;;;2.91;93.47;97754.16;6253267;22;20110;-90
2023/12/22 05:54:20;;;;;;;3.50;1.23;;;;;;;2.94;93.46;97749.66;6254769;22;20023;-91
2023/12/22 05:56:48;;;;;;;4.83;1.53;;;;;;;2.96;93.58;97745.28;6253006;22;20525;-91
2023/12/22 05:59:15;;;;;;;5.57;1.90;;;;;;;2.93;93.63;97755.78;6253290;22;20359;-90
2023/12/22 06:01:42;;;;;;;4.77;1.20;;;;;;;2.90;93.92;97745.47;6252777;22;20254;-92
2023/12/22 06:04:16;;;;;;;4.27;1.47;;;;;;;2.94;92.73;97754.03;6278954;22;20514;-91
2023/12/22 06:06:46;;;;;;;5.20;1.67;;;;;;;2.91;91.77;97747.19;6252695;22;20094;-91
2023/12/22 06:09:18;;;;;;;3.13;1.17;;;;;;;2.94;92.25;97741.84;6253824;22;20138;-91
2023/12/22 06:11:45;;;;;;;2.47;1.13;;;;;;;2.92;91.04;97758.47;6254091;22;20102;-91
2023/12/22 06:14:12;;;;;;;2.83;1.10;;;;;;;2.91;89.26;97744.56;6254024;22;20141;-90
2023/12/22 06:16:40;;;;;;;4.30;1.20;;;;;;;2.98;89.31;97756.47;6252455;22;20094;-90
2023/12/22 06:19:07;;;;;;;4.30;1.20;;;;;;;2.96;90.10;97773.09;6278433;22;20590;-91
2023/12/22 06:21:37;;;;;;;4.73;1.67;;;;;;;2.97;90.92;97748.72;6253254;22;20098;-90
2023/12/22 06:24:05;;;;;;;5.03;1.37;;;;;;;2.93;90.81;97754.94;6253170;22;20522;-91
2023/12/22 06:26:33;;;;;;;6.30;1.53;;;;;;;2.90;90.41;97752.47;6253432;22;20457;-91
2023/12/22 06:29:00;;;;;;;2.57;1.77;;;;;;;2.82;92.38;97756.19;6255007;22;20110;-91
2023/12/22 06:31:27;;;;;;;2.87;1.27;;;;;;;2.70;93.68;97754.03;6279873;22;20538;-91
2023/12/22 06:34:00;;;;;;;6.27;1.50;;;;;;;2.70;95.70;97756.63;6254101;22;20164;-91
2023/12/22 06:36:29;;;;;;;3.73;1.40;;;;;;;2.63;99.06;97769.94;6280159;22;20396;-93
2023/12/22 06:38:57;;;;;;;5.10;1.20;;;;;;;2.62;100.00;97769.09;6253354;22;20098;-90
2023/12/22 06:41:26;;;;;;;5.70;1.93;;;;;;;2.58;100.00;97757.03;6253152;22;20094;-90
2023/12/22 06:43:56;;;;;;;2.67;1.10;;;;;;;2.48;100.00;97756.53;6253720;22;20094;-93
2023/12/22 06:46:27;;;;;;;3.50;1.50;;;;;;;2.47;100.00;97747.00;6253147;22;20509;-92
2023/12/22 06:48:55;;;;;;;3.67;1.50;;;;;;;2.49;100.00;97759.97;6253768;22;20102;-90
2023/12/22 06:51:25;;;;;;;2.63;1.00;;;;;;;2.47;100.00;97751.38;6253641;22;20158;-93
2023/12/22 06:53:57;;;;;;;4.37;1.27;;;;;;;2.53;99.86;97748.56;6278556;22;20106;-90
2023/12/22 06:56:25;;;;;;;5.87;2.47;;;;;;;2.52;99.29;97737.28;6253625;22;20137;-90
2023/12/22 06:58:56;;;;;;;6.07;1.73;;;;;;;2.53;96.61;97731.16;6278593;22;20102;-91
2023/12/22 07:01:34;;;;;;;4.60;1.50;;;;;;;2.50;96.01;97769.50;6254135;22;20090;-93
2023/12/22 07:04:03;;;;;;;4.70;1.37;;;;;;;2.53;93.63;97779.81;6253103;22;20157;-92
2023/12/22 07:06:32;;;;;;;6.90;2.33;;;;;;;2.57;92.80;97786.63;6253500;22;20090;-92
2023/12/22 07:09:12;;;;;;;4.30;1.20;;;;;;;2.64;92.73;97790.72;6253080;22;20134;-92
2023/12/22 07:11:46;;;;;;;2.60;0.90;;;;;;;2.63;93.93;97809.88;6277566;22;20584;-93
2023/12/22 07:14:15;;;;;;;3.38;1.02;;;;;;;2.67;95.07;97815.81;6252947;22;20140;-92
2023/12/22 07:16:42;;;;;;;3.50;1.10;;;;;;;2.65;96.53;97815.03;6252647;22;20094;-93
2023/12/22 07:19:13;;;;;;;3.07;0.97;;;;;;;2.59;97.50;97816.09;6253129;22;20026;-93
2023/12/22 07:21:41;;;;;;;5.97;1.33;;;;;;;2.60;99.50;97811.72;6253027;22;20070;-93
2023/12/22 07:24:12;;;;;;;4.17;1.30;;;;;;;2.57;100.00;97814.44;6254893;22;20090;-93
2023/12/22 07:26:44;;;;;;;2.37;0.90;;;;;;;2.51;100.00;97818.09;6266994;22;20050;-91
2023/12/22 07:29:12;;;;;;;4.17;1.03;;;;;;;2.48;100.00;97831.25;6288784;22;20058;-93
2023/12/22 07:31:42;;;;;;;4.80;1.10;;;;;;;2.46;100.00;97810.44;6252019;22;20101;-93
2023/12/22 07:34:13;;;;;;;3.87;1.17;;;;;;;2.46;99.83;97820.03;6253474;22;20348;-94
2023/12/22 07:36:40;;;;;;;5.00;1.47;;;;;;;2.41;97.87;97832.34;6252211;22;20094;-94
2023/12/22 07:39:18;;;;;;;3.60;1.30;;;;;;;2.47;97.82;97840.81;6255845;22;20067;-92
2023/12/22 07:41:45;;;;;;;7.10;1.80;;;;;;;2.53;95.74;97851.03;6253101;22;20114;-91
2023/12/22 07:44:13;;;;;;;6.53;1.20;;;;;;;2.57;95.87;97836.13;6251946;22;20098;-91
2023/12/22 07:46:40;;;;;;;4.77;1.70;;;;;;;2.60;93.00;97851.66;6277905;22;20019;-91
2023/12/22 07:49:09;;;;;;;5.00;1.57;;;;;;;2.66;91.72;97854.06;6253285;22;20071;-91
2023/12/22 07:51:37;;;;;;;5.40;1.50;;;;;;;2.73;90.31;97844.28;6252396;22;20023;-91
2023/12/22 07:54:08;;;;;;;9.13;2.20;;;;;;;2.80;87.73;97845.78;6253620;22;20172;-92
2023/12/22 07:56:35;;;;;;;7.17;1.40;;;;;;;2.83;88.60;97843.06;6251864;22;20090;-92
2023/12/22 07:59:03;;;;;;;4.17;1.50;;;;;;;2.87;88.25;97839.47;6252734;22;20102;-92
2023/12/22 08:01:50;;;;;;;10.63;2.23;;;;;;;2.87;86.03;97843.84;6259221;22;20094;-93
2023/12/22 08:04:17;;;;;;;7.87;1.80;;;;;;;2.85;85.45;97840.41;6251810;22;20526;-92
2023/12/22 08:06:44;;;;;;;5.40;1.73;;;;;;;2.79;84.44;97846.69;6251143;22;20015;-91
2023/12/22 08:09:12;;;;;;;4.80;1.73;;;;;;;2.88;83.43;97872.47;6251631;22;20094;-91
2023/12/22 08:11:39;;;;;;;6.00;1.70;;;;;;;2.91;83.75;97874.09;6277255;22;20102;-91
2023/12/22 08:14:09;;;;;;;11.13;2.47;;;;;;;2.89;82.25;97891.56;6250977;22;20102;-91
2023/12/22 08:16:36;;;;;;;7.40;2.40;;;;;;;2.96;83.09;97872.19;6251471;22;20103;-92
2023/12/22 08:19:04;;;;;;;8.00;2.50;;;;;;;2.99;82.50;97874.69;6254121;22;20458;-91
2023/12/22 08:21:31;;;;;;;19.17;8.83;;;;;;;3.01;82.74;97867.66;6279565;22;20098;-93
2023/12/22 08:24:11;;;;;;;10.60;2.97;;;;;;;2.99;81.38;97877.28;6259113;22;20086;-92
2023/12/22 08:26:49;;;;;;;7.83;2.20;;;;;;;3.02;81.17;97888.47;6257566;22;20448;-92
2023/12/22 08:29:16;;;;;;;8.87;4.40;;;;;;;3.10;80.01;97873.41;6254683;22;20398;-91
2023/12/22 08:31:44;;;;;;;10.20;2.67;;;;;;;3.09;79.76;97891.72;6253660;22;20098;-91
2023/12/22 08:34:11;;;;;;;6.63;2.30;;;;;;;3.16;78.49;97894.97;6253870;22;20295;-91
2023/12/22 08:36:42;;;;;;;6.73;2.87;;;;;;;3.21;77.94;97880.88;6254104;22;20478;-91
2023/12/22 08:39:10;;;;;;;6.80;2.90;;;;;;;3.19;76.86;97890.47;6280813;22;20078;-90
2023/12/22 08:41:38;;;;;;;7.10;2.80;;;;;;;3.27;75.46;97898.03;6253393;22;20099;-90
2023/12/22 08:44:06;;;;;;;8.70;2.40;;;;;;;3.30;74.13;97870.09;6253761;22;20094;-90
2023/12/22 08:46:34;;;;;;;8.90;2.63;;;;;;;3.33;72.80;97888.25;6253305;22;20149;-91
2023/12/22 08:49:02;;;;;;;8.07;2.60;;;;;;;3.37;71.18;97902.06;6253326;22;20097;-91
2023/12/22 08:51:30;;;;;;;7.37;2.53;;;;;;;3.37;69.14;97895.06;6254189;22;20093;-90
2023/12/22 08:53:58;;;;;;;9.13;2.90;;;;;;;3.42;69.99;97881.84;6278900;22;20145;-90
2023/12/22 08:56:26;;;;;;;9.70;3.10;;;;;;;3.49;68.95;97896.38;6253313;22;20518;-90
2023/12/22 08:58:55;;;;;;;9.97;5.07;;;;;;;3.54;68.75;97919.72;6278675;22;20094;-91
2023/12/22 09:01:22;;;;;;;9.43;3.63;;;;;;;3.61;67.85;97895.91;6253886;22;20042;-90
2023/12/22 09:03:54;;;;;;;10.20;4.93;;;;;;;3.56;65.75;97912.69;6253992;22;20094;-90
2023/12/22 09:06:22;;;;;;;11.43;4.17;;;;;;;3.52;66.43;97929.34;6228179;22;20090;-90
2023/12/22 09:08:52;;;;;;;8.10;2.60;;;;;;;3.66;68.07;97914.03;6254507;22;20138;-90
2023/12/22 09:11:23;;;;;;;10.87;3.03;;;;;;;3.61;66.77;97911.59;6254379;22;20071;-89
2023/12/22 09:13:50;;;;;;;9.07;2.43;;;;;;;3.67;68.14;97910.53;6253297;22;20094;-90
2023/12/22 09:16:22;;;;;;;7.57;2.00;;;;;;;3.70;66.82;97910.44;6253348;22;20090;-89
2023/12/22 09:18:49;;;;;;;6.43;2.30;;;;;;;3.65;67.52;97915.81;6253301;22;20094;-90
2023/12/22 09:21:17;;;;;;;11.13;2.73;;;;;;;3.75;68.23;97916.31;6278350;22;20026;-89
2023/12/22 09:23:49;;;;;;;7.80;2.17;;;;;;;3.76;67.94;97910.19;6279356;22;20082;-90
2023/12/22 09:26:17;;;;;;;9.70;2.33;;;;;;;3.80;68.50;97924.00;6279053;22;20078;-90
2023/12/22 09:28:45;;;;;;;4.67;2.30;;;;;;;3.82;68.58;97932.63;6253201;22;20111;-89
2023/12/22 09:31:13;;;;;;;9.00;3.30;;;;;;;3.86;67.36;97932.44;6253877;22;20098;-90
2023/12/22 09:33:41;;;;;;;6.37;3.27;;;;;;;3.87;67.08;97931.53;6272956;22;20052;-89
2023/12/22 09:36:09;;;;;;;19.90;2.97;;;;;;;3.80;66.67;97937.91;6282514;22;20079;-90
2023/12/22 09:38:36;;;;;;;8.60;3.13;;;;;;;3.91;65.64;97934.88;6253235;22;20094;-89
2023/12/22 09:41:03;;;;;;;10.83;2.67;;;;;;;3.86;65.23;97944.63;6278354;22;20388;-89
2023/12/22 09:43:35;;;;;;;9.23;1.90;;;;;;;3.94;66.79;97940.84;6252900;22;20098;-89
2023/12/22 09:46:07;;;;;;;;;;;;;;;4.04;66.35;97967.50;6279094;22;20510;-91
2023/12/22 09:48:35;;;;;;;12.23;2.20;;;;;;;4.00;66.16;97970.25;6252979;22;20006;-90
2023/12/22 09:51:07;;;;;;;9.43;2.43;;;;;;;3.93;65.37;97946.97;6254577;22;20090;-90
2023/12/22 09:53:35;;;;;;;7.13;1.93;;;;;;;3.93;65.60;97982.69;6252679;22;20133;-90
2023/12/22 09:56:03;;;;;;;6.57;1.73;;;;;;;3.96;65.40;97969.53;6253000;22;20068;-90
2023/12/22 09:58:31;;;;;;;8.33;2.87;;;;;;;3.95;64.98;97971.28;6253207;22;20098;-90
2023/12/22 10:00:59;;;;;;;7.37;2.40;;;;;;;4.06;65.45;97975.25;6253207;22;20122;-90
2023/12/22 10:03:26;;;;;;;7.53;2.10;;;;;;;4.01;64.66;97957.13;6252907;22;20103;-91
2023/12/22 10:05:53;;;;;;;9.73;2.27;;;;;;;3.98;62.83;97982.53;6252533;22;20119;-89
2023/12/22 10:08:21;;;;;;;8.80;1.87;;;;;;;4.07;63.51;97972.59;6278227;22;20083;-90
2023/12/22 10:10:52;;;;;;;4.53;1.80;;;;;;;4.10;63.56;98019.50;6252576;22;20110;-90
2023/12/22 10:13:20;;;;;;;4.93;1.73;;;;;;;4.12;62.36;97996.78;6253876;22;20102;-89
2023/12/22 10:15:50;;;;;;;10.20;2.10;;;;;;;4.09;62.00;97990.81;6252569;22;20089;-91
2023/12/22 10:18:17;;;;;;;7.17;2.90;;;;;;;4.17;63.11;97989.63;6275659;22;20102;-90
2023/12/22 10:20:48;;;;;;;7.77;2.30;;;;;;;4.23;62.16;97988.56;6254387;22;20042;-90
2023/12/22 10:23:15;;;;;;;11.30;2.40;;;;;;;4.31;62.51;97985.66;6251768;22;20098;-91
2023/12/22 10:25:42;;;;;;;9.63;2.47;;;;;;;4.33;60.79;97997.75;6278599;22;20121;-90
2023/12/22 10:28:11;;;;;;;13.53;6.53;;;;;;;4.37;61.70;98001.06;6253412;22;20094;-89
2023/12/22 10:30:44;;;;;;;10.20;3.87;;;;;;;4.34;60.29;98001.19;6255232;22;20020;-89
2023/12/22 10:33:11;;;;;;;10.70;2.43;;;;;;;4.41;59.31;97977.38;6252455;22;20461;-89
2023/12/22 10:35:41;;;;;;;9.37;2.13;;;;;;;4.39;60.44;98007.97;6254930;22;20097;-90
2023/12/22 10:38:09;;;;;;;8.60;3.07;;;;;;;4.43;59.32;97991.25;6253218;22;20102;-90
2023/12/22 10:40:37;;;;;;;8.17;4.20;;;;;;;4.33;57.72;98002.97;6280382;22;20090;-90
2023/12/22 10:43:05;;;;;;;7.03;2.80;;;;;;;4.56;58.68;98009.09;6277881;22;20094;-90
2023/12/22 10:45:33;;;;;;;13.17;5.20;;;;;;;4.63;57.93;98002.72;6252488;22;20402;-90
2023/12/22 10:48:01;;;;;;;8.10;3.30;;;;;;;4.57;57.45;98019.47;6278719;22;20094;-91
2023/12/22 10:50:29;;;;;;;8.40;3.53;;;;;;;4.73;57.23;98017.97;6279709;22;20106;-90
2023/12/22 10:52:56;;;;;;;10.53;3.97;;;;;;;4.80;57.31;98018.59;6255914;22;20415;-90
2023/12/22 10:55:23;;;;;;;9.50;2.10;;;;;;;4.76;57.95;98027.47;6257734;22;20094;-92
2023/12/22 10:57:50;;;;;;;8.90;3.07;;;;;;;4.83;57.51;98046.38;6256587;22;20071;-89
2023/12/22 11:00:24;;;;;;;11.53;3.60;;;;;;;4.82;57.70;98047.31;6255811;22;20090;-89
2023/12/22 11:02:58;;;;;;;4.93;1.97;;;;;;;4.70;57.07;98046.84;6279738;22;20405;-89
2023/12/22 11:05:27;;;;;;;8.48;2.17;;;;;;;4.64;57.39;98038.41;6255334;22;20176;-92
2023/12/22 11:07:55;;;;;;;7.60;1.93;;;;;;;4.76;56.85;98048.38;6279474;22;20090;-89
2023/12/22 11:10:30;;;;;;;4.50;1.60;;;;;;;4.87;57.13;98033.09;6279309;22;20091;-90
2023/12/22 11:12:58;;;;;;;5.33;1.50;;;;;;;4.83;56.78;98028.94;6254180;22;20522;-91
2023/12/22 11:15:26;;;;;;;7.47;1.63;;;;;;;4.85;56.78;98042.78;6278514;22;20522;-88
2023/12/22 11:17:56;;;;;;;10.57;2.17;;;;;;;4.98;56.75;98043.16;6279960;22;20098;-91
2023/12/22 11:20:26;;;;;;;7.23;1.70;;;;;;;5.00;55.62;98023.03;6255281;22;20102;-91
2023/12/22 11:22:55;;;;;;;5.27;1.30;;;;;;;4.81;54.84;98009.84;6280772;22;20080;-90
2023/12/22 11:25:22;;;;;;;3.40;1.63;;;;;;;5.01;55.54;98038.66;6258357;22;20098;-92
2023/12/22 11:27:52;;;;;;;5.87;1.70;;;;;;;5.03;55.27;98065.59;6260983;22;20482;-92
2023/12/22 11:30:20;;;;;;;5.20;2.00;;;;;;;5.08;54.39;98027.03;6262260;22;20046;-90
2023/12/22 11:32:49;;;;;;;5.87;1.60;;;;;;;5.03;53.85;98021.13;6286803;22;20053;-90
2023/12/22 11:35:17;;;;;;;8.23;1.93;;;;;;;4.89;54.55;98044.38;6277041;22;20034;-90
2023/12/22 11:37:45;;;;;;;5.30;1.70;;;;;;;4.92;54.74;98056.50;6262362;22;20046;-91
2023/12/22 11:40:13;;;;;;;4.53;1.67;;;;;;;4.90;54.55;98047.84;6260022;22;20020;-92
2023/12/22 11:42:46;;;;;;;5.63;2.30;;;;;;;5.02;55.32;98029.88;6259455;22;20074;-92
2023/12/22 11:45:18;;;;;;;8.30;4.70;;;;;;;5.01;54.69;98041.28;6259284;22;20102;-90
2023/12/22 11:47:46;;;;;;;7.10;1.90;;;;;;;4.94;55.35;98038.97;6261014;22;20090;-91
2023/12/22 11:50:30;;;;;;;5.30;1.70;;;;;;;4.83;54.44;98047.25;6268595;22;20058;-91
2023/12/22 11:53:18;;;;;;;4.70;2.33;;;;;;;4.89;54.65;98046.16;6287049;22;20038;-94
2023/12/22 11:56:01;;;;;;;3.97;1.77;;;;;;;4.90;55.44;98025.16;6261783;22;20065;-93
2023/12/22 11:58:42;;;;;;;6.37;2.27;;;;;;;4.78;53.83;98016.00;6290138;22;20088;-90
2023/12/22 12:01:11;;;;;;;6.67;1.83;;;;;;;4.77;54.45;98078.84;6286864;22;20454;-91
2023/12/22 12:03:49;;;;;;;4.40;1.23;;;;;;;4.61;53.78;98052.44;6261172;22;20054;-90
2023/12/22 12:06:21;;;;;;;5.77;1.60;;;;;;;4.77;55.34;98055.31;6263673;22;20043;-91
2023/12/22 12:08:50;;;;;;;6.30;1.77;;;;;;;4.86;55.18;98065.41;6285721;22;20459;-91
2023/12/22 12:12:05;;;;;;;6.68;1.60;;;;;;;4.87;55.78;98061.88;6261637;22;20039;-88
2023/12/22 12:14:33;;;;;;;4.53;1.20;;;;;;;4.68;54.92;98048.69;6192797;23;20431;-91
2023/12/22 12:17:09;;;;;;;3.93;1.30;;;;;;;4.70;56.38;98078.22;6165948;23;20092;-91
2023/12/22 12:19:37;;;;;;;8.37;1.47;;;;;;;4.63;55.93;98082.00;6220347;22;20403;-91
2023/12/22 12:22:05;;;;;;;4.17;1.40;;;;;;;4.60;56.40;98081.25;6291817;22;20042;-91
2023/12/22 12:24:32;;;;;;;6.87;1.80;;;;;;;4.54;56.47;98077.13;6283170;22;20011;-89
2023/12/22 12:27:00;;;;;;;6.43;1.60;;;;;;;4.50;56.69;98070.28;6265898;22;20172;-92
2023/12/22 12:29:28;;;;;;;4.20;1.30;;;;;;;4.44;57.11;98078.34;6261813;22;20061;-87
2023/12/22 12:32:03;;;;;;;4.87;1.90;;;;;;;4.48;56.67;98075.59;6260742;22;20387;-90
2023/12/22 12:34:31;;;;;;;5.17;1.70;;;;;;;4.45;57.57;98099.22;6268938;22;20065;-90
2023/12/22 12:36:59;;;;;;;5.73;1.40;;;;;;;4.36;56.83;98069.94;6290049;22;20025;-90
2023/12/22 12:39:31;;;;;;;5.67;1.87;;;;;;;4.33;57.70;98091.84;6287704;22;20466;-91
2023/12/22 12:42:01;;;;;;;3.90;1.70;;;;;;;4.24;57.67;98076.50;6257792;22;20075;-91
2023/12/22 12:44:29;;;;;;;5.67;1.50;;;;;;;4.18;57.88;98090.63;6285655;22;20101;-91
2023/12/22 12:46:57;;;;;;;7.60;1.93;;;;;;;4.17;57.12;98077.63;6282251;22;20098;-92
2023/12/22 12:49:27;;;;;;;7.10;1.97;;;;;;;4.17;57.17;98096.75;6282377;22;20094;-91
2023/12/22 12:51:58;;;;;;;7.17;1.57;;;;;;;4.22;57.10;98092.22;6260440;22;20042;-90
2023/12/22 12:54:27;;;;;;;6.90;1.27;;;;;;;4.22;57.57;98087.00;6233377;22;20494;-92
2023/12/22 12:56:55;;;;;;;6.83;2.40;;;;;;;4.18;56.55;98093.22;6282171;22;20478;-92
2023/12/22 12:59:22;;;;;;;6.13;1.30;;;;;;;4.26;57.00;98090.34;6266320;22;20043;-90
2023/12/22 13:01:49;;;;;;;4.57;1.57;;;;;;;4.26;56.57;98094.72;6274599;22;20019;-90
2023/12/22 13:04:17;;;;;;;3.30;1.60;;;;;;;4.33;57.35;98109.28;6277447;22;20029;-90
2023/12/22 13:06:48;;;;;;;4.60;1.47;;;;;;;4.32;55.83;98108.44;6275282;22;20015;-91
2023/12/22 13:09:16;;;;;;;3.07;1.30;;;;;;;4.24;55.42;98097.41;6278086;22;20019;-91
2023/12/22 13:11:46;;;;;;;4.77;1.57;;;;;;;4.33;56.80;98104.06;6303125;22;20030;-92
2023/12/22 13:14:24;;;;;;;5.10;1.57;;;;;;;4.30;55.69;98089.34;6279418;22;20007;-88
2023/12/22 13:16:56;;;;;;;6.20;1.47;;;;;;;4.31;55.63;98126.78;6307475;22;20022;-88
2023/12/22 13:19:25;;;;;;;3.07;1.20;;;;;;;4.29;55.73;98125.97;6281169;22;20018;-88
2023/12/22 13:21:54;;;;;;;4.50;1.43;;;;;;;4.26;55.72;98139.16;6280635;22;20003;-89
2023/12/22 13:24:21;;;;;;;2.93;1.03;;;;;;;4.25;55.60;98125.22;6276467;22;20030;-90
2023/12/22 13:27:00;;;;;;;4.57;1.30;;;;;;;4.31;55.49;98152.91;6277334;22;20045;-90
2023/12/22 13:29:31;;;;;;;4.30;1.53;;;;;;;4.32;56.89;98142.41;6301511;22;20019;-89
2023/12/22 13:31:58;;;;;;;5.43;1.53;;;;;;;4.17;55.14;98138.56;6278656;22;20010;-89
2023/12/22 13:34:28;;;;;;;4.53;2.30;;;;;;;4.24;56.73;98119.16;6281100;22;20019;-90
2023/12/22 13:36:59;;;;;;;5.67;1.70;;;;;;;4.27;56.59;98141.69;6282338;22;20145;-89
2023/12/22 13:39:27;;;;;;;2.80;1.30;;;;;;;4.24;56.11;98141.81;6280365;22;20038;-88
2023/12/22 13:41:54;;;;;;;4.53;1.80;;;;;;;4.31;57.15;98151.16;6278641;22;20010;-89
2023/12/22 13:44:21;;;;;;;8.00;2.10;;;;;;;4.27;57.86;98146.06;6303366;22;20019;-88
2023/12/22 13:46:49;;;;;;;5.97;1.63;;;;;;;4.19;57.68;98141.97;6252705;22;20014;-90
2023/12/22 13:49:18;;;;;;;4.43;1.37;;;;;;;4.22;57.73;98152.34;6278552;22;20027;-89
2023/12/22 13:51:49;;;;;;;5.87;1.73;;;;;;;4.26;58.27;98147.84;6279433;22;20015;-89
2023/12/22 13:54:16;;;;;;;6.87;2.97;;;;;;;4.16;58.46;98164.75;6279086;22;20027;-89
2023/12/22 13:56:46;;;;;;;7.17;1.60;;;;;;;4.14;59.10;98140.44;6279477;22;20041;-89
2023/12/22 13:59:13;;;;;;;5.17;1.77;;;;;;;4.11;59.18;98157.06;6280628;22;20007;-89
2023/12/22 14:01:40;;;;;;;6.20;2.23;;;;;;;4.10;59.42;98157.97;6279683;22;20026;-89
2023/12/22 14:04:10;;;;;;;6.23;1.47;;;;;;;4.02;58.83;98167.81;6280707;22;20010;-87
2023/12/22 14:06:37;;;;;;;5.33;1.53;;;;;;;4.05;59.05;98146.84;6306924;22;19999;-89
2023/12/22 14:09:05;;;;;;;5.80;1.63;;;;;;;4.02;59.82;98172.19;6281043;22;20023;-89
2023/12/22 14:11:35;;;;;;;6.90;3.17;;;;;;;4.01;59.49;98181.78;6283696;22;20045;-89
2023/12/22 14:14:02;;;;;;;6.80;1.77;;;;;;;3.89;60.43;98172.63;6282075;22;20014;-87
2023/12/22 14:16:30;;;;;;;5.20;1.40;;;;;;;3.90;60.32;98194.38;6282283;22;20014;-88
2023/12/22 14:18:57;;;;;;;7.20;1.50;;;;;;;3.86;59.65;98175.31;6306868;22;19999;-88
2023/12/22 14:21:30;;;;;;;5.80;1.60;;;;;;;3.82;60.48;98184.19;6307943;22;20018;-89
2023/12/22 14:23:57;;;;;;;3.67;1.47;;;;;;;3.81;60.99;98177.25;6307274;22;19995;-90
